Time;durP1;ratioP1;P1;durP2;ratioP2;P2;SDS_P1;SDS_P2;PMS_P1;PMS_P2;Temp;Humidity;BMP_temperature;BMP_pressure;BME280_temperature;BME280_humidity;BME280_pressure;Samples;Min_cycle;Max_cycle;Signal;HPM_P1;HPM_P2
2023/10/02 00:01:48;;;;;;;2.53;0.85;;;;;;;15.49;81.70;95208.03;5051552;28;20250;-78
2023/10/02 00:04:17;;;;;;;0.55;0.55;;;;;;;15.50;81.21;95209.63;5052333;28;20653;-79
2023/10/02 00:06:45;;;;;;;0.85;0.85;;;;;;;15.46;80.98;95200.50;5052382;28;20541;-78
2023/10/02 00:09:11;;;;;;;0.73;0.68;;;;;;;15.43;81.42;95214.09;5052380;28;20218;-78
2023/10/02 00:11:40;;;;;;;1.88;0.75;;;;;;;15.39;80.57;95203.03;5052086;28;20223;-79
2023/10/02 00:14:20;;;;;;;1.30;0.63;;;;;;;15.39;80.16;95200.31;5052055;28;20231;-79
2023/10/02 00:17:03;;;;;;;0.70;0.22;;;;;;;15.38;80.18;95209.66;5051746;28;20252;-78
2023/10/02 00:19:38;;;;;;;0.88;0.52;;;;;;;15.39;79.99;95208.50;5051878;28;20204;-78
2023/10/02 00:22:07;;;;;;;0.65;0.28;;;;;;;15.42;79.27;95207.81;5052133;28;20524;-80
2023/10/02 00:24:37;;;;;;;3.60;0.57;;;;;;;15.47;78.85;95215.75;5051539;28;20210;-76
2023/10/02 00:27:09;;;;;;;1.02;0.65;;;;;;;15.45;78.93;95201.66;5051747;28;20221;-79
2023/10/02 00:29:50;;;;;;;0.68;0.68;;;;;;;15.34;78.49;95189.63;5052115;28;20552;-79
2023/10/02 00:32:19;;;;;;;0.45;0.45;;;;;;;15.47;78.64;95207.56;5051385;28;20235;-78
2023/10/02 00:34:46;;;;;;;0.65;0.60;;;;;;;15.48;78.18;95200.16;5051578;28;20283;-79
2023/10/02 00:37:13;;;;;;;0.35;0.35;;;;;;;15.46;77.72;95197.78;5052001;28;20569;-77
2023/10/02 00:39:41;;;;;;;0.28;0.28;;;;;;;15.43;78.27;95198.50;5051590;28;20278;-78
2023/10/02 00:42:24;;;;;;;0.30;0.30;;;;;;;15.39;77.83;95203.03;5051589;28;20618;-79
2023/10/02 00:44:55;;;;;;;2.28;0.68;;;;;;;15.40;77.34;95207.38;5051087;28;20194;-78
2023/10/02 00:50:16;;;;;;;0.40;0.40;;;;;;;15.43;77.51;95193.03;5051289;28;20187;-78
2023/10/02 00:52:46;;;;;;;0.10;0.10;;;;;;;15.38;77.47;95196.00;5050231;28;20365;-79
2023/10/02 00:55:15;;;;;;;1.40;0.45;;;;;;;15.39;77.93;95197.59;5051468;28;20314;-79
2023/10/02 00:57:45;;;;;;;0.28;0.28;;;;;;;15.39;77.19;95192.13;5050825;28;20228;-79
2023/10/02 01:00:20;;;;;;;0.10;0.10;;;;;;;15.37;77.13;95199.84;5050863;28;20199;-79
2023/10/02 01:02:48;;;;;;;0.20;0.20;;;;;;;15.38;77.03;95201.44;5050964;28;20183;-80
2023/10/02 01:05:21;;;;;;;0.28;0.28;;;;;;;15.38;76.90;95190.53;5050944;28;20203;-79
2023/10/02 01:07:53;;;;;;;0.55;0.55;;;;;;;15.28;77.25;95174.63;5050536;28;20184;-81
2023/10/02 01:10:22;;;;;;;0.57;0.57;;;;;;;15.28;77.51;95185.56;5050828;28;20232;-78
2023/10/02 01:12:53;;;;;;;0.43;0.43;;;;;;;15.33;76.95;95190.75;5050687;28;20208;-78
2023/10/02 01:15:26;;;;;;;0.30;0.30;;;;;;;15.32;76.67;95191.88;5050468;28;20754;-78
2023/10/02 01:17:53;;;;;;;0.47;0.47;;;;;;;15.30;76.90;95194.19;5050607;28;20633;-78
2023/10/02 01:23:16;;;;;;;0.30;0.30;;;;;;;15.31;76.25;95190.31;5039591;28;20687;-78
2023/10/02 01:25:46;;;;;;;0.20;0.20;;;;;;;15.28;76.37;95191.81;5050551;28;20180;-78
2023/10/02 01:28:15;;;;;;;1.17;0.60;;;;;;;15.25;76.13;95187.03;5050601;28;20200;-78
2023/10/02 01:30:44;;;;;;;0.63;0.50;;;;;;;15.25;76.01;95186.22;5082578;28;20648;-79
2023/10/02 01:33:14;;;;;;;0.50;0.50;;;;;;;15.26;75.79;95187.81;5050395;28;20251;-78
2023/10/02 01:35:48;;;;;;;0.40;0.40;;;;;;;15.17;76.03;95184.44;5049987;28;20204;-77
2023/10/02 01:38:18;;;;;;;1.38;0.70;;;;;;;15.17;75.88;95185.19;5050481;28;20239;-78
2023/10/02 01:40:48;;;;;;;0.20;0.20;;;;;;;15.11;76.17;95192.03;5050493;28;20214;-77
2023/10/02 01:43:16;;;;;;;0.40;0.40;;;;;;;15.04;76.42;95191.00;5050654;28;20238;-78
2023/10/02 01:45:45;;;;;;;0.30;0.30;;;;;;;14.99;76.69;95185.78;5050088;28;20575;-79
2023/10/02 01:48:13;;;;;;;0.17;0.17;;;;;;;14.96;76.67;95192.72;5050002;28;20225;-78
2023/10/02 01:50:43;;;;;;;0.28;0.28;;;;;;;14.98;76.39;95192.38;5050526;28;20227;-79
2023/10/02 01:53:28;;;;;;;0.30;0.30;;;;;;;14.96;75.99;95187.28;5050960;28;20721;-79
2023/10/02 01:56:05;;;;;;;0.50;0.50;;;;;;;14.96;75.98;95192.72;5050014;28;20187;-80
2023/10/02 01:58:34;;;;;;;0.45;0.45;;;;;;;14.98;75.57;95197.84;5050789;28;20215;-79
2023/10/02 02:01:01;;;;;;;0.52;0.52;;;;;;;14.91;75.82;95193.75;5050449;28;20245;-80
2023/10/02 02:03:29;;;;;;;0.15;0.15;;;;;;;14.83;76.06;95200.13;5049917;28;20211;-77
2023/10/02 02:05:56;;;;;;;0.30;0.30;;;;;;;14.80;76.11;95203.50;5050028;28;20216;-80
2023/10/02 02:08:23;;;;;;;1.55;0.68;;;;;;;14.81;76.00;95194.19;5050087;28;20213;-79
2023/10/02 02:10:52;;;;;;;0.32;0.32;;;;;;;14.78;76.01;95194.06;5049689;28;20223;-79
2023/10/02 02:13:21;;;;;;;0.17;0.17;;;;;;;14.73;76.14;95200.56;5049467;28;20203;-79
2023/10/02 02:15:51;;;;;;;0.20;0.20;;;;;;;14.67;76.04;95201.91;5049919;28;20187;-78
2023/10/02 02:18:20;;;;;;;0.20;0.20;;;;;;;14.68;76.28;95206.22;5050182;28;20314;-78
2023/10/02 02:20:58;;;;;;;2.85;1.45;;;;;;;14.63;75.68;95203.72;5049712;28;20249;-77
2023/10/02 02:23:27;;;;;;;2.95;1.60;;;;;;;14.62;75.56;95207.59;5049812;28;20564;-80
2023/10/02 02:25:54;;;;;;;1.85;1.40;;;;;;;14.54;75.49;95197.56;5050130;28;20207;-78
2023/10/02 02:28:23;;;;;;;3.70;1.63;;;;;;;14.50;75.86;95210.28;5049889;28;20611;-79
2023/10/02 02:30:50;;;;;;;3.20;1.60;;;;;;;14.42;74.94;95201.09;5049553;28;20542;-81
2023/10/02 02:33:34;;;;;;;0.20;0.20;;;;;;;14.40;75.11;95205.28;5050208;28;20218;-78
2023/10/02 02:36:05;;;;;;;0.45;0.45;;;;;;;14.45;73.79;95205.06;5048508;28;20204;-77
2023/10/02 02:38:34;;;;;;;0.30;0.30;;;;;;;14.44;73.76;95214.38;5050308;28;20211;-78
2023/10/02 02:41:10;;;;;;;0.40;0.40;;;;;;;14.36;73.93;95215.22;5049911;28;20299;-78
2023/10/02 02:43:46;;;;;;;0.47;0.47;;;;;;;14.33;74.32;95221.38;5049996;28;20191;-78
2023/10/02 02:46:17;;;;;;;2.63;0.68;;;;;;;14.24;73.30;95208.59;5050506;28;20192;-78
2023/10/02 02:48:44;;;;;;;0.45;0.45;;;;;;;14.27;73.26;95222.69;5049660;28;20251;-78
2023/10/02 02:51:23;;;;;;;0.75;0.75;;;;;;;14.22;73.71;95218.25;5082223;28;20219;-77
2023/10/02 02:53:51;;;;;;;0.30;0.30;;;;;;;14.10;74.23;95219.00;5049651;28;20533;-77
2023/10/02 02:56:22;;;;;;;0.65;0.65;;;;;;;14.05;74.52;95211.06;5050367;28;20617;-78
2023/10/02 02:58:52;;;;;;;0.30;0.30;;;;;;;13.96;75.06;95221.22;5050313;28;20249;-77
2023/10/02 03:01:23;;;;;;;0.50;0.50;;;;;;;13.96;74.59;95217.69;5050106;28;20597;-74
2023/10/02 03:03:50;;;;;;;0.30;0.30;;;;;;;13.83;75.21;95203.22;5050061;28;20521;-76
2023/10/02 03:06:22;;;;;;;0.10;0.10;;;;;;;13.86;75.01;95213.47;5050005;28;20262;-74
2023/10/02 03:08:51;;;;;;;0.17;0.17;;;;;;;13.81;75.55;95216.38;5049591;28;20688;-73
2023/10/02 03:11:19;;;;;;;1.55;1.00;;;;;;;13.83;73.37;95214.13;5049544;28;20230;-74
2023/10/02 03:13:47;;;;;;;0.40;0.40;;;;;;;13.86;72.43;95202.56;5049543;28;20278;-73
2023/10/02 03:16:18;;;;;;;0.63;0.35;;;;;;;13.97;71.05;95205.66;5049976;28;20188;-74
2023/10/02 03:18:48;;;;;;;2.78;1.15;;;;;;;13.94;70.90;95215.31;5050040;28;20200;-74
2023/10/02 03:21:21;;;;;;;0.20;0.20;;;;;;;13.96;69.70;95214.97;5050187;28;20655;-74
2023/10/02 03:23:49;;;;;;;0.20;0.20;;;;;;;14.03;69.12;95207.88;5051717;28;20204;-74
2023/10/02 03:29:05;;;;;;;0.20;0.20;;;;;;;13.99;69.26;95217.81;5047492;28;20296;-73
2023/10/02 03:31:43;;;;;;;0.10;0.10;;;;;;;13.98;69.13;95202.63;5053446;28;20613;-74
2023/10/02 03:34:28;;;;;;;0.10;0.10;;;;;;;14.07;68.46;95206.06;5053318;28;20241;-73
2023/10/02 03:36:59;;;;;;;0.30;0.30;;;;;;;14.07;67.60;95203.34;5053124;28;20188;-75
2023/10/02 03:42:14;;;;;;;0.20;0.20;;;;;;;13.99;67.61;95208.84;5053249;28;20191;-75
2023/10/02 03:44:42;;;;;;;0.55;0.55;;;;;;;13.95;67.46;95203.28;5053341;28;20652;-73
2023/10/02 03:47:12;;;;;;;0.32;0.32;;;;;;;13.97;67.86;95220.09;5052797;28;20203;-73
2023/10/02 03:49:42;;;;;;;0.20;0.20;;;;;;;13.94;67.49;95209.84;5052904;28;20235;-76
2023/10/02 03:52:09;;;;;;;0.20;0.20;;;;;;;14.00;66.90;95208.53;5053146;28;20261;-75
2023/10/02 03:54:36;;;;;;;0.20;0.20;;;;;;;13.99;66.55;95217.03;5052773;28;20207;-75
2023/10/02 03:57:03;;;;;;;0.50;0.40;;;;;;;14.01;66.36;95210.13;5053022;28;20269;-75
2023/10/02 03:59:32;;;;;;;2.78;1.88;;;;;;;14.04;66.20;95208.66;5052411;28;20199;-73
2023/10/02 04:04:43;;;;;;;1.35;1.10;;;;;;;13.98;65.90;95221.69;5053798;28;20196;-74
2023/10/02 04:07:11;;;;;;;0.20;0.20;;;;;;;14.05;65.39;95218.44;5052267;28;20230;-75
2023/10/02 04:09:38;;;;;;;0.20;0.20;;;;;;;14.07;65.40;95230.59;5052221;28;20607;-74
2023/10/02 04:12:06;;;;;;;0.10;0.10;;;;;;;14.04;65.56;95219.56;5052152;28;20212;-75
2023/10/02 04:14:38;;;;;;;0.10;0.10;;;;;;;14.12;64.88;95235.81;5052170;28;20235;-73
2023/10/02 04:17:20;;;;;;;2.42;0.88;;;;;;;14.08;65.39;95240.34;5051911;28;20202;-74
2023/10/02 04:19:49;;;;;;;2.13;0.52;;;;;;;14.05;65.33;95241.03;5052423;28;20195;-74
2023/10/02 04:22:19;;;;;;;0.45;0.45;;;;;;;14.08;65.38;95243.06;5052367;28;20621;-74
2023/10/02 04:24:54;;;;;;;0.20;0.20;;;;;;;14.09;65.25;95241.13;5052299;28;20212;-74
2023/10/02 04:27:26;;;;;;;0.55;0.55;;;;;;;14.09;65.03;95250.09;5052362;28;20249;-74
2023/10/02 04:30:20;;;;;;;0.80;0.30;;;;;;;14.07;65.09;95252.38;5052187;28;20696;-74
2023/10/02 04:32:51;;;;;;;2.08;0.73;;;;;;;14.07;65.22;95255.13;5052506;28;20583;-74
2023/10/02 04:38:08;;;;;;;0.17;0.17;;;;;;;14.12;65.49;95254.88;5051920;28;20191;-74
2023/10/02 04:40:49;;;;;;;0.52;0.52;;;;;;;14.09;65.22;95257.47;5050697;28;20203;-73
2023/10/02 04:43:19;;;;;;;0.98;0.68;;;;;;;14.10;65.23;95265.31;5052336;28;20608;-74
2023/10/02 04:45:46;;;;;;;0.30;0.30;;;;;;;14.15;65.40;95253.44;5051728;28;20184;-74
2023/10/02 04:48:14;;;;;;;3.03;1.38;;;;;;;14.22;65.21;95264.56;5052038;28;20314;-74
2023/10/02 04:50:45;;;;;;;2.00;0.52;;;;;;;14.26;64.99;95264.69;5051650;28;20204;-76
2023/10/02 04:58:39;;;;;;;0.13;0.13;;;;;;;14.44;63.93;95260.72;5048897;28;20273;-74
2023/10/02 05:01:24;;;;;;;0.20;0.20;;;;;;;14.47;63.82;95252.66;5051657;28;20184;-75
2023/10/02 05:03:53;;;;;;;0.30;0.30;;;;;;;14.68;62.86;95260.78;5051634;28;20724;-74
2023/10/02 05:06:44;;;;;;;0.20;0.20;;;;;;;14.83;62.24;95254.66;5051645;28;20210;-76
2023/10/02 05:09:20;;;;;;;0.40;0.40;;;;;;;15.12;61.51;95259.13;5051513;28;20567;-74
2023/10/02 05:11:55;;;;;;;0.20;0.20;;;;;;;15.02;61.14;95265.03;5050910;28;20228;-78
2023/10/02 05:14:29;;;;;;;0.10;0.10;;;;;;;14.86;61.40;95266.84;5048426;28;20234;-75
2023/10/02 05:17:16;;;;;;;0.30;0.30;;;;;;;14.80;61.96;95266.25;5050671;28;20195;-75
2023/10/02 05:20:04;;;;;;;0.20;0.20;;;;;;;14.93;61.84;95262.41;5050947;28;20216;-74
2023/10/02 05:22:32;;;;;;;0.63;0.63;;;;;;;14.83;62.16;95264.78;5051015;28;20196;-76
2023/10/02 05:25:04;;;;;;;0.40;0.40;;;;;;;14.81;62.69;95273.31;5050721;28;20568;-74
2023/10/02 05:27:32;;;;;;;0.20;0.20;;;;;;;14.86;61.84;95273.09;5050341;28;20207;-74
2023/10/02 05:30:05;;;;;;;0.20;0.20;;;;;;;14.88;61.29;95270.81;5050359;28;20273;-74
2023/10/02 05:32:35;;;;;;;0.28;0.28;;;;;;;15.03;61.37;95283.00;5029776;28;20211;-76
2023/10/02 05:35:05;;;;;;;0.30;0.30;;;;;;;14.91;61.20;95275.59;5030593;28;20208;-74
2023/10/02 05:37:41;;;;;;;1.13;0.43;;;;;;;15.85;59.25;95280.16;5031069;28;20303;-74
2023/10/02 05:45:53;;;;;;;0.20;0.20;;;;;;;18.73;51.01;95266.13;5149632;27;20523;-76
2023/10/02 05:48:28;;;;;;;0.20;0.20;;;;;;;18.33;50.81;95281.00;5149265;27;20207;-77
2023/10/02 05:50:56;;;;;;;1.65;0.38;;;;;;;18.14;51.13;95272.78;5149139;27;20196;-75
2023/10/02 05:53:26;;;;;;;0.90;0.68;;;;;;;17.49;53.09;95275.22;5149153;27;20208;-75
2023/10/02 05:56:04;;;;;;;0.40;0.40;;;;;;;17.80;52.41;95284.53;5149138;27;20555;-74
2023/10/02 05:58:32;;;;;;;1.38;1.10;;;;;;;18.81;50.28;95276.09;5149565;27;20605;-76
2023/10/02 06:01:03;;;;;;;2.60;0.73;;;;;;;18.88;49.82;95276.22;5148848;27;20261;-77
2023/10/02 06:03:34;;;;;;;0.68;0.68;;;;;;;19.43;47.81;95265.78;5149151;27;20598;-77
2023/10/02 06:06:17;;;;;;;1.27;1.00;;;;;;;19.85;47.79;95271.16;5148943;27;20261;-77
2023/10/02 06:08:49;;;;;;;1.25;0.82;;;;;;;20.19;46.28;95269.28;5149027;27;20203;-76
2023/10/02 06:11:32;;;;;;;0.20;0.20;;;;;;;18.99;48.63;95277.22;5149337;27;20232;-75
2023/10/02 06:14:09;;;;;;;2.30;1.30;;;;;;;18.67;49.18;95289.53;5149100;27;20614;-76
2023/10/02 06:16:39;;;;;;;1.08;0.95;;;;;;;18.38;50.24;95283.47;5149264;27;20643;-75
2023/10/02 06:19:13;;;;;;;0.30;0.30;;;;;;;18.21;50.86;95294.06;5148518;27;20334;-74
2023/10/02 06:21:46;;;;;;;1.17;0.65;;;;;;;18.71;49.96;95291.22;5149214;27;20699;-75
2023/10/02 06:24:15;;;;;;;0.30;0.30;;;;;;;18.92;49.96;95296.28;5148489;27;20296;-74
2023/10/02 06:26:55;;;;;;;0.95;0.75;;;;;;;18.19;49.64;95302.63;5148574;27;20211;-74
2023/10/02 06:29:23;;;;;;;0.77;0.38;;;;;;;18.84;49.14;95297.34;5148841;27;20646;-76
2023/10/02 06:31:59;;;;;;;1.25;0.63;;;;;;;19.61;47.49;95288.88;5148868;27;20824;-73
2023/10/02 06:34:36;;;;;;;0.20;0.20;;;;;;;18.87;47.94;95299.31;5148373;27;20259;-76
2023/10/02 06:37:07;;;;;;;0.35;0.20;;;;;;;18.98;47.81;95286.63;5147901;27;20191;-74
2023/10/02 06:39:38;;;;;;;0.10;0.10;;;;;;;19.31;47.67;95293.44;5148458;27;20647;-75
2023/10/02 06:42:05;;;;;;;0.20;0.20;;;;;;;19.21;47.61;95307.78;5147890;27;20204;-76
2023/10/02 06:44:37;;;;;;;0.10;0.10;;;;;;;19.13;48.08;95304.91;5147550;27;20232;-76
2023/10/02 06:47:11;;;;;;;0.90;0.80;;;;;;;18.58;49.09;95319.16;5147780;27;20230;-75
2023/10/02 06:49:40;;;;;;;0.30;0.30;;;;;;;18.39;49.99;95315.22;5148414;27;20245;-77
2023/10/02 06:52:17;;;;;;;0.60;0.52;;;;;;;18.05;50.98;95327.00;5147863;27;20205;-76
2023/10/02 06:54:45;;;;;;;0.30;0.28;;;;;;;17.67;51.91;95328.50;5147789;27;20191;-75
2023/10/02 06:57:14;;;;;;;0.20;0.20;;;;;;;17.63;52.62;95332.28;5133458;27;20205;-75
2023/10/02 06:59:51;;;;;;;0.22;0.22;;;;;;;17.80;52.59;95329.19;5134367;27;20684;-75
2023/10/02 07:02:20;;;;;;;2.08;0.70;;;;;;;17.75;52.59;95324.78;5134031;27;20520;-76
2023/10/02 07:04:48;;;;;;;0.45;0.45;;;;;;;17.39;52.75;95333.25;5134263;27;20256;-75
2023/10/02 07:07:23;;;;;;;1.88;0.50;;;;;;;17.54;52.75;95315.22;5133224;27;20966;-74
2023/10/02 07:09:52;;;;;;;0.20;0.20;;;;;;;17.01;54.16;95329.16;5134337;27;20331;-76
2023/10/02 07:12:20;;;;;;;0.32;0.32;;;;;;;17.13;54.21;95320.09;5133896;27;20208;-77
2023/10/02 07:14:49;;;;;;;0.20;0.20;;;;;;;17.27;54.35;95334.13;5133697;27;20213;-76
2023/10/02 07:17:23;;;;;;;0.15;0.15;;;;;;;16.74;55.03;95327.25;5133394;27;20205;-75
2023/10/02 07:20:00;;;;;;;0.30;0.30;;;;;;;16.54;55.43;95344.63;5134213;27;20593;-77
2023/10/02 07:22:28;;;;;;;0.45;0.45;;;;;;;16.34;56.54;95341.75;5133873;27;20556;-76
2023/10/02 07:24:56;;;;;;;0.40;0.40;;;;;;;16.20;57.17;95335.88;5133276;27;20320;-79
2023/10/02 07:27:27;;;;;;;0.30;0.30;;;;;;;16.15;57.62;95338.81;5133923;27;20299;-74
2023/10/02 07:29:55;;;;;;;0.10;0.10;;;;;;;16.32;57.19;95337.75;5133608;27;20201;-73
2023/10/02 07:32:24;;;;;;;0.30;0.30;;;;;;;16.53;57.44;95337.59;5133633;27;20197;-74
2023/10/02 07:34:54;;;;;;;0.40;0.40;;;;;;;16.52;57.40;95325.84;5133364;27;20208;-76
2023/10/02 07:37:22;;;;;;;0.20;0.20;;;;;;;16.86;56.67;95324.47;5133116;27;20281;-74
2023/10/02 07:39:56;;;;;;;0.57;0.25;;;;;;;17.23;55.72;95335.19;5133228;27;20208;-74
2023/10/02 07:42:24;;;;;;;0.73;0.73;;;;;;;17.42;55.11;95329.81;5133619;27;20190;-74
2023/10/02 07:44:52;;;;;;;0.10;0.10;;;;;;;17.45;55.35;95329.13;5133240;27;20237;-77
2023/10/02 07:47:21;;;;;;;0.30;0.30;;;;;;;17.22;55.34;95325.41;5133688;27;20216;-75
2023/10/02 07:49:54;;;;;;;0.20;0.20;;;;;;;17.53;55.30;95330.88;5114732;27;20200;-75
2023/10/02 07:52:35;;;;;;;0.30;0.30;;;;;;;17.32;54.85;95325.66;5133388;27;20197;-74
2023/10/02 07:55:02;;;;;;;0.40;0.40;;;;;;;17.38;54.81;95335.19;5132653;27;20201;-75
2023/10/02 07:57:32;;;;;;;0.45;0.45;;;;;;;17.32;54.65;95338.56;5132736;27;20201;-76
2023/10/02 08:00:04;;;;;;;0.15;0.15;;;;;;;17.26;53.87;95342.69;5132807;27;20205;-77
2023/10/02 08:02:33;;;;;;;0.10;0.10;;;;;;;17.13;54.57;95338.44;5133018;27;20189;-78
2023/10/02 08:05:03;;;;;;;0.20;0.20;;;;;;;17.30;54.84;95343.59;5132201;27;20220;-76
2023/10/02 08:07:33;;;;;;;0.30;0.30;;;;;;;17.17;54.87;95328.41;5131428;27;20197;-75
2023/10/02 08:10:00;;;;;;;0.22;0.20;;;;;;;17.61;55.13;95332.66;5132271;27;20228;-74
2023/10/02 08:12:30;;;;;;;0.80;0.77;;;;;;;17.28;55.22;95334.94;5132672;27;20207;-75
2023/10/02 08:15:00;;;;;;;0.75;0.22;;;;;;;17.04;55.70;95331.22;5132685;27;20673;-76
2023/10/02 08:18:00;;;;;;;0.30;0.30;;;;;;;16.77;56.30;95326.56;5132881;27;20209;-74
2023/10/02 08:20:32;;;;;;;0.30;0.25;;;;;;;16.91;57.09;95337.91;5132138;27;20207;-73
2023/10/02 08:23:02;;;;;;;0.22;0.22;;;;;;;17.37;55.69;95321.84;5132239;27;20195;-74
2023/10/02 08:25:29;;;;;;;0.30;0.30;;;;;;;17.47;55.41;95332.31;5132829;27;20576;-76
2023/10/02 08:27:59;;;;;;;0.30;0.30;;;;;;;17.33;55.63;95331.94;5131963;27;20301;-76
2023/10/02 08:30:29;;;;;;;0.20;0.20;;;;;;;17.61;55.00;95331.84;5132539;27;20200;-76
2023/10/02 08:33:05;;;;;;;0.52;0.52;;;;;;;17.38;54.40;95335.19;5132460;27;20205;-78
2023/10/02 08:35:33;;;;;;;0.10;0.10;;;;;;;17.22;55.13;95352.78;5132285;27;20200;-75
2023/10/02 08:38:04;;;;;;;0.68;0.68;;;;;;;17.08;55.64;95333.25;5132298;27;20250;-75
2023/10/02 08:40:32;;;;;;;0.25;0.25;;;;;;;17.19;55.98;95331.59;5113473;27;20265;-75
2023/10/02 08:43:05;;;;;;;0.30;0.30;;;;;;;17.37;55.85;95346.50;5132075;27;20259;-77
2023/10/02 08:45:34;;;;;;;2.78;1.10;;;;;;;17.26;55.07;95339.97;5131516;27;20336;-75
2023/10/02 08:48:07;;;;;;;0.20;0.20;;;;;;;17.63;54.41;95341.31;5131794;27;20765;-75
2023/10/02 08:50:37;;;;;;;0.35;0.35;;;;;;;17.57;54.42;95326.28;5132226;27;20645;-76
2023/10/02 08:53:09;;;;;;;2.88;1.38;;;;;;;17.67;53.79;95325.75;5132183;27;20215;-77
2023/10/02 08:55:45;;;;;;;0.22;0.22;;;;;;;17.60;53.46;95324.78;5132101;27;20189;-75
2023/10/02 08:58:19;;;;;;;0.50;0.50;;;;;;;17.71;53.72;95314.88;5113243;27;20212;-75
2023/10/02 09:01:17;;;;;;;0.57;0.30;;;;;;;17.84;53.28;95315.56;5131745;27;20250;-75
2023/10/02 09:03:49;;;;;;;0.15;0.15;;;;;;;18.10;53.18;95310.28;5131828;27;20189;-76
2023/10/02 09:06:28;;;;;;;1.40;0.70;;;;;;;17.85;52.59;95298.78;5131351;27;20221;-75
2023/10/02 09:09:21;;;;;;;1.58;0.80;;;;;;;17.65;53.07;95319.84;5131745;27;20620;-75
2023/10/02 09:11:52;;;;;;;0.10;0.10;;;;;;;18.03;53.22;95315.63;5131968;27;20570;-75
2023/10/02 09:14:22;;;;;;;0.70;0.70;;;;;;;18.05;51.71;95311.34;5131388;27;20204;-75
2023/10/02 09:17:07;;;;;;;3.83;1.00;;;;;;;18.03;52.14;95315.63;5131523;27;20262;-75
2023/10/02 09:19:37;;;;;;;0.13;0.13;;;;;;;18.32;52.39;95301.34;5114895;27;20208;-75
2023/10/02 09:22:10;;;;;;;0.82;0.35;;;;;;;18.55;53.07;95319.84;5131099;27;20244;-75
2023/10/02 09:24:40;;;;;;;1.33;0.90;;;;;;;18.31;51.39;95305.25;5131256;27;20193;-76
2023/10/02 09:27:27;;;;;;;1.60;1.15;;;;;;;18.38;52.04;95321.88;5131454;27;20215;-74
2023/10/02 09:32:47;;;;;;;0.20;0.20;;;;;;;18.69;49.10;95315.47;5130278;27;20228;-75
2023/10/02 09:35:29;;;;;;;0.20;0.20;;;;;;;19.06;49.51;95312.25;5130565;27;20188;-76
2023/10/02 09:38:02;;;;;;;0.30;0.30;;;;;;;19.43;49.26;95309.75;5131765;27;20527;-79
2023/10/02 09:43:22;;;;;;;2.35;0.93;;;;;;;19.36;47.46;95304.13;5131113;28;20382;-75
2023/10/02 09:45:52;;;;;;;2.28;1.30;;;;;;;18.90;49.11;95306.84;5130977;28;20311;-74
2023/10/02 09:51:21;;;;;;;0.40;0.40;;;;;;;19.19;47.94;95305.41;5130808;28;20188;-74
2023/10/02 09:54:04;;;;;;;0.77;0.77;;;;;;;19.51;48.13;95295.78;5131087;28;20185;-75
2023/10/02 09:57:04;;;;;;;0.90;0.75;;;;;;;19.59;47.32;95302.19;5130973;28;20188;-76
2023/10/02 09:59:37;;;;;;;0.20;0.20;;;;;;;19.51;47.17;95300.50;5130636;28;20216;-75
2023/10/02 10:10:47;;;;;;;0.70;0.70;;;;;;;19.05;47.10;95311.44;5117075;28;20273;-75
2023/10/02 10:13:26;;;;;;;0.65;0.57;;;;;;;19.16;46.16;95312.41;5130667;28;20250;-77
2023/10/02 10:16:31;;;;;;;0.30;0.30;;;;;;;19.11;45.73;95310.00;5130667;28;20207;-76
2023/10/02 10:19:31;;;;;;;1.35;0.60;;;;;;;19.39;45.97;95293.22;5130304;28;20200;-76
2023/10/02 10:21:57;;;;;;;0.60;0.43;;;;;;;19.55;44.50;95306.81;5130744;28;20213;-75
2023/10/02 10:25:22;;;;;;;1.58;0.77;;;;;;;19.64;44.00;95288.13;5131199;28;20203;-75
2023/10/02 10:27:58;;;;;;;0.75;0.50;;;;;;;19.97;43.07;95289.38;5091493;28;20288;-76
2023/10/02 10:30:46;;;;;;;0.45;0.20;;;;;;;19.73;42.18;95280.41;5111543;28;20554;-76
2023/10/02 10:33:34;;;;;;;3.08;1.20;;;;;;;19.73;42.81;95280.41;5124110;27;20205;-80
2023/10/02 10:36:08;;;;;;;0.93;0.93;;;;;;;19.59;42.08;95277.44;5129415;27;20200;-76
2023/10/02 10:38:41;;;;;;;0.30;0.30;;;;;;;19.73;42.70;95274.91;5119958;27;20287;-76
2023/10/02 10:41:14;;;;;;;1.30;0.73;;;;;;;20.03;42.25;95271.41;5148946;27;20564;-75
2023/10/02 10:43:55;;;;;;;0.68;0.60;;;;;;;20.11;42.47;95262.09;5141457;27;20761;-75
2023/10/02 10:46:27;;;;;;;0.52;0.52;;;;;;;20.52;43.09;95265.78;5133826;27;20221;-74
2023/10/02 10:48:59;;;;;;;1.20;0.70;;;;;;;20.29;43.31;95268.63;5133548;27;20301;-76
2023/10/02 10:51:33;;;;;;;1.17;0.98;;;;;;;20.19;43.42;95263.78;5127004;27;20205;-76
2023/10/02 10:54:12;;;;;;;0.75;0.60;;;;;;;20.31;42.62;95260.78;5132457;27;20224;-76
2023/10/02 10:56:43;;;;;;;1.92;1.20;;;;;;;20.44;42.86;95258.63;5142152;27;20206;-76
2023/10/02 10:59:15;;;;;;;0.40;0.40;;;;;;;20.39;43.13;95256.97;5133107;27;20286;-76
2023/10/02 11:02:09;;;;;;;3.15;0.60;;;;;;;20.33;42.73;95261.22;5119673;27;20240;-76
2023/10/02 11:04:39;;;;;;;1.95;1.00;;;;;;;20.40;43.73;95246.75;5123269;27;20293;-77
2023/10/02 11:07:19;;;;;;;2.22;1.05;;;;;;;20.69;43.12;95253.38;5146772;27;20216;-75
2023/10/02 11:12:39;;;;;;;2.55;1.45;;;;;;;20.47;42.89;95252.38;5121534;27;20251;-77
2023/10/02 11:15:43;;;;;;;4.00;1.00;;;;;;;20.86;42.29;95242.56;5132530;27;20269;-76
2023/10/02 11:18:20;;;;;;;1.95;0.85;;;;;;;20.89;42.54;95235.50;5132836;27;20208;-76
2023/10/02 11:20:51;;;;;;;2.90;1.10;;;;;;;20.93;43.79;95244.59;5132800;27;20209;-75
2023/10/02 11:23:30;;;;;;;4.10;1.45;;;;;;;20.40;43.79;95236.53;5132590;27;20236;-75
2023/10/02 11:25:58;;;;;;;1.92;1.20;;;;;;;21.08;43.15;95227.03;5132651;27;20228;-77
2023/10/02 11:28:32;;;;;;;2.40;1.70;;;;;;;21.47;42.94;95221.06;5119185;27;20197;-77
2023/10/02 11:31:29;;;;;;;1.63;1.05;;;;;;;21.45;42.19;95218.72;5119076;27;20715;-79
2023/10/02 11:34:04;;;;;;;0.65;0.65;;;;;;;21.73;42.00;95226.38;5123526;27;20200;-75
2023/10/02 11:36:37;;;;;;;0.93;0.55;;;;;;;21.27;42.69;95213.06;5118633;27;20200;-74
2023/10/02 11:39:09;;;;;;;2.83;0.93;;;;;;;21.04;43.52;95226.22;5120560;27;20197;-76
2023/10/02 11:41:40;;;;;;;0.50;0.40;;;;;;;21.64;42.87;95220.41;5119566;27;20226;-76
2023/10/02 11:44:10;;;;;;;1.20;1.10;;;;;;;21.80;42.16;95223.66;5118652;27;20710;-75
2023/10/02 11:46:37;;;;;;;1.13;1.02;;;;;;;21.55;42.83;95217.19;5112599;28;20312;-75
2023/10/02 11:49:05;;;;;;;4.43;1.45;;;;;;;22.01;42.22;95211.19;5112188;28;20205;-74
2023/10/02 11:51:33;;;;;;;0.90;0.75;;;;;;;21.87;42.34;95209.09;5112761;28;20205;-74
2023/10/02 11:54:01;;;;;;;2.47;1.42;;;;;;;21.60;42.65;95214.06;5115454;27;20202;-78
2023/10/02 11:56:28;;;;;;;1.90;1.23;;;;;;;21.22;43.70;95212.59;5094382;28;20684;-75
2023/10/02 11:58:56;;;;;;;1.95;1.27;;;;;;;21.33;44.62;95215.44;5119532;27;20916;-76
2023/10/02 12:01:24;;;;;;;1.75;1.27;;;;;;;21.61;43.77;95210.13;5119708;27;20265;-74
2023/10/02 12:03:57;;;;;;;3.25;1.45;;;;;;;21.67;42.93;95214.13;5122084;27;20205;-78
2023/10/02 12:06:25;;;;;;;1.48;1.10;;;;;;;21.84;42.60;95210.69;5132445;27;20229;-76
2023/10/02 12:08:56;;;;;;;4.40;1.38;;;;;;;21.78;42.91;95214.97;5129916;27;20205;-75
2023/10/02 12:11:24;;;;;;;2.58;1.23;;;;;;;21.95;43.43;95214.31;5129273;27;20216;-78
2023/10/02 12:13:51;;;;;;;3.78;1.50;;;;;;;21.75;42.87;95210.22;5127096;27;20207;-77
2023/10/02 12:16:19;;;;;;;3.30;1.48;;;;;;;21.64;43.29;95209.38;5123473;27;20197;-73
2023/10/02 12:18:47;;;;;;;2.83;1.75;;;;;;;21.47;43.47;95204.53;5130630;27;20615;-76
2023/10/02 12:21:19;;;;;;;2.28;1.42;;;;;;;21.71;43.55;95198.41;5131813;27;20250;-77
2023/10/02 12:23:48;;;;;;;2.50;1.20;;;;;;;21.75;42.71;95199.19;5131602;27;20207;-75
2023/10/02 12:26:27;;;;;;;2.38;1.40;;;;;;;21.30;43.53;95181.19;5125045;27;20225;-77
2023/10/02 12:28:53;;;;;;;2.28;1.63;;;;;;;21.94;42.50;95201.69;5132480;27;20741;-75
2023/10/02 12:31:21;;;;;;;2.58;1.58;;;;;;;22.34;42.60;95192.41;5128744;27;20213;-75
2023/10/02 12:33:50;;;;;;;1.58;1.10;;;;;;;21.84;42.46;95185.06;5111927;28;20205;-75
2023/10/02 12:36:19;;;;;;;2.60;0.98;;;;;;;22.01;42.58;95189.09;5104259;27;20197;-75
2023/10/02 12:38:49;;;;;;;2.47;1.30;;;;;;;21.89;42.95;95193.75;5130778;27;20680;-76
2023/10/02 12:41:18;;;;;;;2.25;1.48;;;;;;;22.08;43.97;95189.16;5129404;27;20204;-73
2023/10/02 12:43:47;;;;;;;1.70;1.23;;;;;;;21.79;42.50;95193.72;5128987;27;20232;-73
2023/10/02 12:46:16;;;;;;;3.10;1.83;;;;;;;21.79;42.85;95186.22;5130788;27;20216;-75
2023/10/02 12:48:46;;;;;;;1.23;0.75;;;;;;;21.81;42.73;95186.63;5129178;27;20209;-73